Time;durP1;ratioP1;P1;durP2;ratioP2;P2;SDS_P1;SDS_P2;PMS_P1;PMS_P2;Temp;Humidity;BMP_temperature;BMP_pressure;BME280_temperature;BME280_humidity;BME280_pressure;Samples;Min_cycle;Max_cycle;Signal;HPM_P1;HPM_P2
2022/12/16 00:00:37;;;;;;;28.80;8.40;;;;;;;;;;10500653;28;20481;-77
2022/12/16 00:05:51;;;;;;;24.17;7.27;;;;;;;;;;10518794;28;20046;-77
2022/12/16 00:10:57;;;;;;;29.47;9.20;;;;;;;;;;10519200;28;20031;-77
2022/12/16 00:16:00;;;;;;;24.02;8.10;;;;;;;;;;10503802;28;20279;-77
2022/12/16 00:21:04;;;;;;;26.23;7.73;;;;;;;;;;10515894;28;20037;-77
2022/12/16 00:26:08;;;;;;;23.67;7.33;;;;;;;;;;10517331;28;20052;-76
2022/12/16 00:31:10;;;;;;;26.57;8.20;;;;;;;;;;10502460;28;20048;-77
2022/12/16 00:36:15;;;;;;;16.70;6.53;;;;;;;;;;10501959;28;20043;-76
2022/12/16 00:41:18;;;;;;;19.08;6.20;;;;;;;;;;10524006;28;20421;-77
2022/12/16 00:46:20;;;;;;;21.07;6.70;;;;;;;;;;10504179;28;20051;-75
2022/12/16 00:51:25;;;;;;;19.93;6.67;;;;;;;;;;10504207;28;20044;-76
2022/12/16 00:56:30;;;;;;;21.77;7.50;;;;;;;;;;10521747;28;20094;-76
2022/12/16 01:01:32;;;;;;;18.73;6.73;;;;;;;;;;10519518;28;20505;-76
2022/12/16 01:06:37;;;;;;;22.03;6.87;;;;;;;;;;10506524;28;20041;-78
2022/12/16 01:11:42;;;;;;;17.40;6.80;;;;;;;;;;10511293;28;20032;-76
2022/12/16 01:16:46;;;;;;;25.00;7.60;;;;;;;;;;10509210;28;20055;-77
2022/12/16 01:21:50;;;;;;;20.58;6.18;;;;;;;;;;10502936;28;20071;-77
2022/12/16 01:26:54;;;;;;;26.17;8.00;;;;;;;;;;10516938;28;20040;-77
2022/12/16 01:31:57;;;;;;;28.20;9.97;;;;;;;;;;10499478;28;20044;-77
2022/12/16 01:37:01;;;;;;;25.20;8.07;;;;;;;;;;10507065;28;20234;-77
2022/12/16 01:42:04;;;;;;;24.25;7.45;;;;;;;;;;10519122;28;20396;-77
2022/12/16 01:47:08;;;;;;;23.20;8.17;;;;;;;;;;10522737;28;20460;-78
2022/12/16 01:52:15;;;;;;;21.15;7.95;;;;;;;;;;10504118;28;20059;-78
2022/12/16 01:57:21;;;;;;;27.20;9.30;;;;;;;;;;10520776;28;20035;-77
2022/12/16 02:02:24;;;;;;;26.47;8.60;;;;;;;;;;10501928;28;20043;-77
2022/12/16 02:07:28;;;;;;;26.47;8.90;;;;;;;;;;10524377;28;20083;-76
2022/12/16 02:12:35;;;;;;;28.25;9.05;;;;;;;;;;10523095;28;20059;-77
2022/12/16 02:17:41;;;;;;;34.23;10.77;;;;;;;;;;10498343;28;20059;-77
2022/12/16 02:22:50;;;;;;;28.80;10.17;;;;;;;;;;10493595;28;20052;-77
2022/12/16 02:27:58;;;;;;;26.93;9.43;;;;;;;;;;10519712;28;20309;-77
2022/12/16 02:33:09;;;;;;;27.07;9.60;;;;;;;;;;10500288;28;20503;-76
2022/12/16 02:38:17;;;;;;;28.17;10.67;;;;;;;;;;10508347;28;20043;-77
2022/12/16 02:43:38;;;;;;;30.60;11.53;;;;;;;;;;10514368;28;20085;-77
2022/12/16 02:48:45;;;;;;;33.67;12.10;;;;;;;;;;10497146;28;20048;-76
2022/12/16 02:53:48;;;;;;;31.27;10.48;;;;;;;;;;10522960;28;20082;-77
2022/12/16 02:58:53;;;;;;;34.67;13.10;;;;;;;;;;10519223;28;20079;-77
2022/12/16 03:04:02;;;;;;;37.70;13.37;;;;;;;;;;10522427;28;20404;-78
2022/12/16 03:09:06;;;;;;;31.60;11.43;;;;;;;;;;10505710;28;20059;-78
2022/12/16 03:14:12;;;;;;;31.10;10.67;;;;;;;;;;10518795;28;20039;-77
2022/12/16 03:19:17;;;;;;;32.93;11.50;;;;;;;;;;10507054;28;20032;-77
2022/12/16 03:24:19;;;;;;;;;;;;;;;;;;10479040;28;20048;-77
2022/12/16 03:29:25;;;;;;;29.90;11.20;;;;;;;;;;10520157;28;20177;-77
2022/12/16 03:34:33;;;;;;;28.67;11.03;;;;;;;;;;10508855;28;20048;-77
2022/12/16 03:39:38;;;;;;;30.43;11.60;;;;;;;;;;10497009;28;20124;-77
2022/12/16 03:44:42;;;;;;;31.87;11.60;;;;;;;;;;10504525;28;20287;-77
2022/12/16 03:49:46;;;;;;;31.40;10.70;;;;;;;;;;10495161;28;20142;-77
2022/12/16 03:54:49;;;;;;;23.33;9.35;;;;;;;;;;10523165;28;20043;-77
2022/12/16 03:59:53;;;;;;;34.77;11.70;;;;;;;;;;10516907;28;20036;-78
2022/12/16 04:04:58;;;;;;;32.85;11.90;;;;;;;;;;10514289;28;20503;-77
2022/12/16 04:10:01;;;;;;;35.63;12.57;;;;;;;;;;10512384;28;20033;-77
2022/12/16 04:25:57;;;;;;;39.73;12.97;;;;;;;;;;10511912;28;20039;-77
2022/12/16 04:31:00;;;;;;;41.57;14.50;;;;;;;;;;10502399;28;20118;-77
